createdAt,value
2023-05-08T00:02:43.826Z,9.00
2023-05-08T00:05:46.817Z,9.33
2023-05-08T00:08:49.686Z,9.50
2023-05-08T00:11:52.521Z,9.68
2023-05-08T00:14:55.616Z,9.60
2023-05-08T00:17:58.815Z,9.97
2023-05-08T00:21:02.093Z,10.00
2023-05-08T00:24:05.008Z,10.20
2023-05-08T00:27:08.474Z,10.32
2023-05-08T00:30:11.983Z,11.02
2023-05-08T00:33:15.002Z,10.30
2023-05-08T00:36:18.297Z,9.67
2023-05-08T00:39:22.084Z,10.43
2023-05-08T00:42:24.990Z,8.45
2023-05-08T00:45:33.232Z,6.05
2023-05-08T00:48:36.577Z,4.33
2023-05-08T00:51:40.925Z,3.03
2023-05-08T00:54:44.526Z,3.03
2023-05-08T00:57:48.282Z,2.58
2023-05-08T01:00:54.424Z,2.55
2023-05-08T01:03:57.439Z,2.40
2023-05-08T01:07:01.710Z,2.87
2023-05-08T01:10:05.147Z,2.83
2023-05-08T01:13:37.081Z,2.60
2023-05-08T01:16:42.713Z,2.70
2023-05-08T01:20:30.518Z,3.30
2023-05-08T01:23:43.022Z,3.27
2023-05-08T01:27:04.380Z,2.70
2023-05-08T01:30:29.730Z,3.15
2023-05-08T01:33:44.309Z,2.67
2023-05-08T01:36:56.184Z,3.17
2023-05-08T01:40:21.301Z,3.27
2023-05-08T01:43:44.992Z,3.28
2023-05-08T01:46:51.583Z,3.20
2023-05-08T01:50:18.578Z,3.70
2023-05-08T01:53:43.886Z,3.87
2023-05-08T01:56:48.194Z,3.80
2023-05-08T01:59:52.837Z,3.42
2023-05-08T02:02:57.193Z,3.58
2023-05-08T02:06:00.958Z,3.20
2023-05-08T02:09:04.240Z,3.73
2023-05-08T02:12:08.433Z,3.60
2023-05-08T02:15:13.505Z,3.75
2023-05-08T02:18:18.938Z,4.25
2023-05-08T02:21:23.122Z,3.42
2023-05-08T02:24:26.577Z,3.70
2023-05-08T02:27:30.608Z,3.07
2023-05-08T02:30:34.010Z,4.30
2023-05-08T02:33:40.290Z,3.42
2023-05-08T02:36:43.475Z,4.63
2023-05-08T02:39:48.526Z,4.97
2023-05-08T02:42:51.723Z,3.90
2023-05-08T02:46:16.435Z,3.85
2023-05-08T02:49:23.602Z,4.70
2023-05-08T02:52:31.087Z,4.57
2023-05-08T02:55:49.773Z,4.53
2023-05-08T02:59:02.591Z,5.23
2023-05-08T03:02:17.293Z,4.53
2023-05-08T03:05:26.265Z,4.95
2023-05-08T03:08:35.566Z,4.78
2023-05-08T03:11:41.414Z,4.93
2023-05-08T03:15:12.552Z,5.10
2023-05-08T03:18:20.525Z,4.80
2023-05-08T03:21:24.552Z,5.10
2023-05-08T03:24:28.625Z,5.57
2023-05-08T03:27:32.423Z,4.97
2023-05-08T03:30:40.783Z,5.30
2023-05-08T03:33:48.256Z,5.97
2023-05-08T03:36:51.206Z,5.70
2023-05-08T03:39:55.970Z,5.65
2023-05-08T03:43:00.908Z,4.73
2023-05-08T03:46:07.239Z,5.20
2023-05-08T03:49:11.340Z,5.50
2023-05-08T03:52:15.124Z,5.80
2023-05-08T03:55:18.347Z,6.07
2023-05-08T03:58:37.461Z,5.40
2023-05-08T04:01:46.778Z,5.13
2023-05-08T04:04:55.708Z,5.43
2023-05-08T04:08:10.062Z,5.28
2023-05-08T04:11:22.661Z,5.53
2023-05-08T04:14:30.851Z,6.60
2023-05-08T04:17:48.418Z,6.50
2023-05-08T04:20:54.901Z,6.45
2023-05-08T04:23:58.785Z,7.55
2023-05-08T04:27:03.486Z,7.43
2023-05-08T04:30:08.372Z,7.40
2023-05-08T04:33:11.974Z,8.03
2023-05-08T04:36:14.881Z,9.18
2023-05-08T04:39:20.200Z,8.55
2023-05-08T04:42:24.546Z,7.88
2023-05-08T04:45:28.245Z,8.07
2023-05-08T04:48:33.500Z,8.70
2023-05-08T04:51:36.777Z,8.75
2023-05-08T04:54:42.156Z,9.35
2023-05-08T04:57:45.670Z,8.63
2023-05-08T05:00:48.801Z,9.00
2023-05-08T05:03:51.669Z,8.90
2023-05-08T05:06:55.054Z,8.77
2023-05-08T05:09:58.222Z,8.48
2023-05-08T05:13:01.317Z,8.30
2023-05-08T05:16:04.708Z,8.10
2023-05-08T05:19:07.820Z,8.30
2023-05-08T05:22:10.868Z,8.15
2023-05-08T05:25:13.762Z,7.30
2023-05-08T05:28:16.952Z,8.07
2023-05-08T05:31:19.965Z,8.00
2023-05-08T05:34:23.208Z,8.10
2023-05-08T05:37:25.951Z,9.07
2023-05-08T05:40:29.532Z,8.15
2023-05-08T05:43:33.178Z,8.20
2023-05-08T05:46:36.518Z,8.40
2023-05-08T05:49:43.264Z,8.93
2023-05-08T05:52:47.061Z,8.63
2023-05-08T05:55:50.325Z,8.30
2023-05-08T05:58:54.070Z,8.35
2023-05-08T06:02:23.289Z,8.13
2023-05-08T06:05:26.679Z,8.07
2023-05-08T06:08:34.826Z,8.52
2023-05-08T06:11:37.609Z,8.25
2023-05-08T06:14:40.233Z,8.77
2023-05-08T06:17:43.108Z,8.53
2023-05-08T06:20:45.736Z,8.17
2023-05-08T06:23:48.433Z,8.48
2023-05-08T06:26:51.123Z,9.35
2023-05-08T06:29:54.104Z,8.50
2023-05-08T06:32:56.952Z,8.43
2023-05-08T06:36:00.548Z,8.37
2023-05-08T06:39:06.474Z,8.05
2023-05-08T06:42:09.146Z,8.13
2023-05-08T06:45:15.180Z,8.35
2023-05-08T06:48:18.175Z,8.70
2023-05-08T06:51:23.316Z,7.67
2023-05-08T06:54:26.229Z,6.82
2023-05-08T06:57:30.554Z,7.05
2023-05-08T07:00:33.788Z,7.75
2023-05-08T07:03:37.169Z,6.73
2023-05-08T07:06:40.118Z,7.27
2023-05-08T07:10:01.155Z,7.60
2023-05-08T07:13:33.678Z,7.00
2023-05-08T07:16:40.753Z,6.93
2023-05-08T07:19:50.885Z,7.00
2023-05-08T07:22:56.627Z,6.80
2023-05-08T07:25:59.788Z,7.13
2023-05-08T07:29:16.116Z,7.68
2023-05-08T07:32:20.008Z,7.65
2023-05-08T07:35:23.494Z,7.37
2023-05-08T07:38:26.881Z,7.33
2023-05-08T07:41:30.031Z,8.15
2023-05-08T07:44:47.010Z,8.27
2023-05-08T07:47:58.087Z,7.55
2023-05-08T07:51:04.879Z,8.00
2023-05-08T07:54:07.727Z,7.73
2023-05-08T07:57:10.556Z,8.00
2023-05-08T08:00:15.174Z,7.93
2023-05-08T08:03:19.450Z,8.05
2023-05-08T08:06:22.769Z,7.43
2023-05-08T08:09:25.899Z,8.77
2023-05-08T08:12:29.453Z,7.97
2023-05-08T08:15:32.874Z,8.63
2023-05-08T08:18:37.772Z,7.50
2023-05-08T08:21:52.768Z,6.97
2023-05-08T08:24:56.649Z,6.50
2023-05-08T08:27:59.440Z,6.65
2023-05-08T08:31:02.534Z,6.72
2023-05-08T08:34:05.418Z,7.72
2023-05-08T08:37:08.728Z,6.47
2023-05-08T08:40:11.837Z,6.80
2023-05-08T08:43:14.875Z,6.65
2023-05-08T08:46:20.440Z,6.82
2023-05-08T08:49:37.401Z,6.15
2023-05-08T08:53:05.319Z,6.40
2023-05-08T08:56:09.259Z,6.10
2023-05-08T08:59:13.433Z,6.85
2023-05-08T09:02:18.192Z,6.13
2023-05-08T09:05:23.792Z,6.30
2023-05-08T09:08:26.944Z,7.33
2023-05-08T09:11:30.093Z,6.10
2023-05-08T09:14:33.137Z,6.13
2023-05-08T09:17:36.138Z,6.85
2023-05-08T09:20:41.918Z,6.05
2023-05-08T09:24:05.085Z,6.10
2023-05-08T09:27:21.562Z,7.00
2023-05-08T09:30:24.437Z,6.03
2023-05-08T09:33:29.166Z,5.70
2023-05-08T09:36:32.365Z,5.88
2023-05-08T09:39:35.207Z,5.87
2023-05-08T09:42:39.029Z,6.60
2023-05-08T09:45:42.873Z,6.53
2023-05-08T09:48:46.133Z,7.00
2023-05-08T09:55:22.189Z,5.87
2023-05-08T09:58:41.165Z,6.20
2023-05-08T10:01:44.693Z,7.05
2023-05-08T10:04:47.960Z,6.32
2023-05-08T10:07:51.012Z,6.88
2023-05-08T10:10:53.821Z,7.07
2023-05-08T10:13:56.593Z,6.60
2023-05-08T10:17:03.957Z,7.03
2023-05-08T10:20:08.089Z,7.10
2023-05-08T10:23:15.166Z,6.63
2023-05-08T10:26:32.704Z,6.27
2023-05-08T10:29:52.822Z,6.47
2023-05-08T10:32:56.679Z,5.50
2023-05-08T10:36:00.358Z,5.68
2023-05-08T10:39:03.358Z,6.90
2023-05-08T10:42:07.049Z,6.50
2023-05-08T10:45:10.817Z,6.00
2023-05-08T10:48:35.275Z,5.85
2023-05-08T10:51:47.717Z,4.80
2023-05-08T10:55:04.561Z,5.93
2023-05-08T10:58:17.507Z,6.17
2023-05-08T11:01:20.265Z,5.73
2023-05-08T11:04:23.894Z,4.82
2023-05-08T11:08:02.231Z,4.97
2023-05-08T11:11:11.128Z,4.70
2023-05-08T11:14:15.619Z,4.73
2023-05-08T11:17:23.929Z,4.90
2023-05-08T11:20:56.634Z,4.85
2023-05-08T11:23:59.376Z,4.72
2023-05-08T11:27:02.161Z,5.25
2023-05-08T11:30:27.005Z,5.13
2023-05-08T11:33:31.293Z,5.43
2023-05-08T11:36:36.979Z,5.03
2023-05-08T11:39:39.968Z,4.80
2023-05-08T11:42:42.964Z,4.93
2023-05-08T11:45:46.968Z,4.30
2023-05-08T11:48:58.503Z,4.43
2023-05-08T11:52:01.505Z,4.50
2023-05-08T11:55:13.091Z,4.10
2023-05-08T11:58:16.703Z,4.50
2023-05-08T12:01:22.543Z,4.83
2023-05-08T12:04:25.429Z,4.10
2023-05-08T12:07:28.414Z,3.85
2023-05-08T12:10:31.670Z,4.20
2023-05-08T12:13:35.036Z,4.05
2023-05-08T12:16:39.060Z,4.43
2023-05-08T12:19:41.872Z,4.00
2023-05-08T12:22:52.892Z,4.43
2023-05-08T12:25:55.831Z,4.13
2023-05-08T12:28:58.914Z,4.10
2023-05-08T12:32:02.051Z,4.50
2023-05-08T12:35:06.991Z,4.83
2023-05-08T12:38:11.010Z,3.60
2023-05-08T12:41:14.055Z,4.40
2023-05-08T12:44:23.679Z,3.90
2023-05-08T12:47:26.944Z,4.93
2023-05-08T12:50:33.695Z,3.80
2023-05-08T12:53:38.128Z,3.85
2023-05-08T12:56:46.664Z,4.00
2023-05-08T12:59:49.417Z,3.80
2023-05-08T13:02:55.861Z,4.00
2023-05-08T13:05:59.025Z,4.27
2023-05-08T13:09:01.876Z,3.30
2023-05-08T13:12:05.958Z,3.55
2023-05-08T13:15:09.755Z,3.42
2023-05-08T13:18:12.698Z,3.73
2023-05-08T13:21:15.914Z,3.60
2023-05-08T13:24:18.522Z,3.85
2023-05-08T13:27:21.255Z,3.95
2023-05-08T13:30:23.970Z,2.92
2023-05-08T13:33:26.885Z,3.23
2023-05-08T13:36:29.687Z,4.33
2023-05-08T13:39:37.347Z,4.00
2023-05-08T13:42:40.094Z,2.40
2023-05-08T13:45:42.874Z,3.67
2023-05-08T13:48:45.823Z,3.83
2023-05-08T13:51:51.990Z,3.10
2023-05-08T13:54:59.405Z,3.72
2023-05-08T13:58:02.342Z,3.53
2023-05-08T14:01:17.656Z,3.40
2023-05-08T14:04:25.536Z,2.60
2023-05-08T14:07:28.399Z,3.20
2023-05-08T14:10:31.158Z,3.60
2023-05-08T14:13:33.864Z,3.90
2023-05-08T14:16:36.609Z,2.92
2023-05-08T14:19:39.510Z,2.97
2023-05-08T14:22:42.229Z,3.43
2023-05-08T14:25:44.941Z,2.67
2023-05-08T14:28:47.739Z,2.70
2023-05-08T14:31:50.724Z,2.70
2023-05-08T14:34:53.379Z,3.00
2023-05-08T14:37:56.059Z,3.30
2023-05-08T14:40:58.838Z,3.08
2023-05-08T14:44:01.985Z,2.40
2023-05-08T14:47:04.797Z,3.00
2023-05-08T14:50:07.986Z,3.00
2023-05-08T14:53:10.773Z,2.17
2023-05-08T14:56:14.237Z,2.50
2023-05-08T14:59:17.338Z,2.28
2023-05-08T15:02:20.761Z,2.78
2023-05-08T15:05:23.649Z,3.07
2023-05-08T15:08:26.607Z,2.50
2023-05-08T15:11:29.258Z,2.08
2023-05-08T15:14:31.890Z,2.63
2023-05-08T15:17:36.635Z,3.00
2023-05-08T15:20:39.397Z,3.00
2023-05-08T15:23:42.012Z,3.10
2023-05-08T15:26:44.631Z,2.58
2023-05-08T15:29:48.617Z,1.70
2023-05-08T15:32:51.580Z,1.70
2023-05-08T15:35:54.231Z,2.73
2023-05-08T15:38:56.956Z,2.70
2023-05-08T15:41:59.630Z,1.90
2023-05-08T15:45:02.409Z,2.80
2023-05-08T15:48:05.163Z,1.90
2023-05-08T15:51:07.977Z,1.80
2023-05-08T15:54:10.844Z,2.60
2023-05-08T15:57:14.015Z,2.22
2023-05-08T16:00:17.034Z,1.63
2023-05-08T16:03:19.803Z,1.58
2023-05-08T16:06:22.598Z,1.90
2023-05-08T16:09:25.485Z,1.90
2023-05-08T16:12:28.188Z,3.30
2023-05-08T16:15:30.833Z,2.80
2023-05-08T16:18:33.688Z,2.78
2023-05-08T16:21:36.263Z,2.40
2023-05-08T16:24:38.893Z,2.70
2023-05-08T16:27:41.615Z,2.58
2023-05-08T16:30:44.301Z,1.80
2023-05-08T16:33:46.956Z,1.30
2023-05-08T16:36:49.755Z,1.80
2023-05-08T16:39:52.354Z,1.67
2023-05-08T16:42:55.023Z,1.80
2023-05-08T16:45:59.356Z,1.90
2023-05-08T16:49:02.174Z,2.05
2023-05-08T16:52:04.836Z,1.53
2023-05-08T16:55:08.252Z,1.70
2023-05-08T16:58:11.311Z,1.60
2023-05-08T17:01:14.337Z,1.60
2023-05-08T17:04:17.042Z,1.85
2023-05-08T17:07:19.853Z,1.10
2023-05-08T17:10:22.598Z,1.40
2023-05-08T17:13:25.471Z,1.67
2023-05-08T17:16:28.278Z,1.30
2023-05-08T17:19:30.976Z,1.10
2023-05-08T17:22:33.525Z,1.20
2023-05-08T17:25:36.356Z,1.77
2023-05-08T17:28:39.052Z,1.15
2023-05-08T17:31:41.735Z,1.48
2023-05-08T17:34:44.457Z,1.00
2023-05-08T17:37:47.277Z,1.23
2023-05-08T17:40:50.446Z,1.47
2023-05-08T17:43:53.864Z,1.85
2023-05-08T17:46:56.673Z,1.65
2023-05-08T17:49:59.429Z,1.85
2023-05-08T17:53:02.142Z,2.00
2023-05-08T17:56:04.947Z,1.63
2023-05-08T17:59:07.666Z,1.80
2023-05-08T18:02:10.404Z,1.60
2023-05-08T18:05:13.086Z,2.10
2023-05-08T18:08:15.770Z,3.00
2023-05-08T18:11:23.410Z,2.33
2023-05-08T18:14:29.147Z,1.45
2023-05-08T18:17:31.934Z,1.63
2023-05-08T18:20:35.012Z,1.30
2023-05-08T18:23:37.731Z,1.50
2023-05-08T18:26:40.397Z,1.40
2023-05-08T18:29:43.050Z,1.83
2023-05-08T18:32:45.889Z,1.70
2023-05-08T18:35:48.801Z,2.15
2023-05-08T18:38:51.627Z,1.40
2023-05-08T18:41:54.363Z,1.70
2023-05-08T18:44:57.047Z,2.15
2023-05-08T18:47:59.835Z,1.42
2023-05-08T18:51:02.525Z,2.42
2023-05-08T18:54:05.691Z,2.93
2023-05-08T18:57:08.307Z,2.07
2023-05-08T19:00:11.543Z,1.73
2023-05-08T19:03:14.743Z,1.80
2023-05-08T19:06:17.789Z,1.65
2023-05-08T19:09:20.577Z,2.10
2023-05-08T19:12:23.322Z,1.30
2023-05-08T19:15:26.021Z,1.65
2023-05-08T19:18:30.141Z,2.00
2023-05-08T19:21:32.975Z,1.70
2023-05-08T19:24:36.733Z,1.83
2023-05-08T19:27:39.693Z,2.40
2023-05-08T19:30:42.470Z,1.95
2023-05-08T19:33:45.713Z,2.22
2023-05-08T19:36:48.235Z,1.80
2023-05-08T19:39:50.838Z,2.57
2023-05-08T19:42:54.091Z,2.40
2023-05-08T19:45:57.039Z,2.00
2023-05-08T19:48:59.710Z,2.53
2023-05-08T19:52:02.433Z,2.20
2023-05-08T19:55:05.668Z,2.30
2023-05-08T19:58:08.339Z,2.47
2023-05-08T20:01:10.908Z,2.15
2023-05-08T20:04:13.698Z,2.55
2023-05-08T20:07:16.528Z,2.20
2023-05-08T20:10:19.296Z,2.30
2023-05-08T20:13:22.054Z,2.60
2023-05-08T20:16:24.797Z,2.42
2023-05-08T20:19:27.640Z,2.10
2023-05-08T20:22:30.344Z,2.60
2023-05-08T20:25:32.992Z,2.73
2023-05-08T20:28:35.792Z,2.73
2023-05-08T20:31:38.530Z,3.00
2023-05-08T20:34:41.553Z,3.20
2023-05-08T20:37:45.681Z,3.22
2023-05-08T20:40:48.385Z,3.50
2023-05-08T20:43:50.967Z,3.50
2023-05-08T20:46:53.863Z,3.55
2023-05-08T20:49:56.768Z,4.10
2023-05-08T20:52:59.420Z,4.10
2023-05-08T20:56:03.331Z,4.73
2023-05-08T20:59:06.058Z,4.33
2023-05-08T21:02:08.660Z,3.80
2023-05-08T21:05:11.546Z,3.80
2023-05-08T21:08:14.512Z,4.07
2023-05-08T21:11:17.227Z,3.90
2023-05-08T21:14:20.027Z,3.20
2023-05-08T21:17:22.724Z,3.90
2023-05-08T21:20:25.411Z,3.50
2023-05-08T21:23:30.293Z,3.55
2023-05-08T21:26:32.964Z,3.53
2023-05-08T21:29:35.697Z,3.43
2023-05-08T21:32:38.428Z,3.47
2023-05-08T21:35:41.791Z,3.83
2023-05-08T21:38:44.413Z,3.13
2023-05-08T21:41:47.211Z,3.33
2023-05-08T21:44:49.875Z,3.07
2023-05-08T21:47:52.597Z,3.42
2023-05-08T21:50:55.348Z,3.13
2023-05-08T21:53:58.338Z,3.28
2023-05-08T21:57:00.928Z,3.00
2023-05-08T22:00:05.583Z,3.03
2023-05-08T22:03:08.377Z,3.85
2023-05-08T22:48:33.958Z,3.00
2023-05-08T22:51:36.849Z,3.20
2023-05-08T22:54:39.574Z,3.05
2023-05-08T22:57:42.260Z,3.50
2023-05-08T23:00:44.880Z,3.47
2023-05-08T23:03:51.339Z,3.43
2023-05-08T23:06:53.862Z,3.03
2023-05-08T23:09:59.107Z,3.17
2023-05-08T23:13:01.783Z,3.30
2023-05-08T23:16:04.810Z,3.67
2023-05-08T23:19:10.216Z,3.30
2023-05-08T23:22:12.806Z,3.20
2023-05-08T23:25:15.707Z,3.40
2023-05-08T23:28:20.983Z,3.45
2023-05-08T23:31:23.943Z,3.50
2023-05-08T23:34:26.631Z,4.93
2023-05-08T23:37:36.563Z,4.07
2023-05-08T23:40:39.291Z,3.90
2023-05-08T23:43:42.267Z,3.40
2023-05-08T23:46:45.364Z,3.87
2023-05-08T23:49:48.198Z,3.80
2023-05-08T23:52:50.848Z,4.10
2023-05-08T23:55:53.651Z,4.03
2023-05-08T23:58:56.513Z,4.00
